Time,TemperatureF,DewpointF,PressureIn,WindDirection,WindDirectionDegrees,WindSpeedMPH,WindSpeedGustMPH,Humidity,HourlyPrecipIn,Conditions,Clouds,dailyrainin,SoftwareType,DateUTC
2013-03-19 00:00:00,34.3,29.1,30.13,SSE,158,27.0,34.0,81,0.00,,,0.00,meteohub,2013-03-19 04:00:00,
2013-03-19 00:01:00,34.3,29.5,30.13,SE,135,23.0,34.0,82,0.00,,,0.00,meteohub,2013-03-19 04:01:00,
2013-03-19 00:02:00,34.3,29.5,30.13,SE,135,23.0,34.0,82,0.00,,,0.00,meteohub,2013-03-19 04:02:00,
2013-03-19 00:07:00,34.3,29.7,30.13,SE,135,26.0,34.0,83,0.00,,,0.00,meteohub,2013-03-19 04:07:00,
2013-03-19 00:12:00,34.3,29.7,30.13,SE,135,26.0,34.0,83,0.00,,,0.00,meteohub,2013-03-19 04:12:00,
2013-03-19 00:17:00,34.0,30.0,30.13,SE,135,21.0,27.0,85,0.00,,,0.00,meteohub,2013-03-19 04:17:00,
2013-03-19 00:22:00,34.0,30.0,30.13,SE,135,22.0,26.0,85,0.00,,,0.00,meteohub,2013-03-19 04:22:00,
2013-03-19 00:27:00,34.0,30.2,30.13,SE,135,30.0,30.0,86,0.00,,,0.00,meteohub,2013-03-19 04:27:00,
2013-03-19 00:32:00,34.0,30.6,30.13,SE,135,29.0,30.0,87,0.00,,,0.00,meteohub,2013-03-19 04:32:00,
2013-03-19 00:38:00,34.0,30.6,30.13,SE,135,29.0,30.0,87,0.00,,,0.00,meteohub,2013-03-19 04:38:00,
2013-03-19 00:43:00,34.2,30.9,30.11,SE,135,26.0,30.0,88,0.00,,,0.00,meteohub,2013-03-19 04:43:00,
2013-03-19 00:48:00,34.2,30.9,30.11,SSE,158,21.0,29.0,88,0.00,,,0.00,meteohub,2013-03-19 04:48:00,
2013-03-19 00:54:00,34.2,30.9,30.11,SSE,158,28.0,31.0,88,0.00,,,0.00,meteohub,2013-03-19 04:54:00,
2013-03-19 00:59:00,34.2,30.9,30.08,SE,135,29.0,31.0,88,0.00,,,0.00,meteohub,2013-03-19 04:59:00,
2013-03-19 01:04:00,34.2,30.9,30.08,SE,135,30.0,31.0,88,0.00,,,0.00,meteohub,2013-03-19 05:04:00,
2013-03-19 01:09:00,34.2,30.9,30.08,SE,135,28.0,30.0,88,0.00,,,0.00,meteohub,2013-03-19 05:09:00,
2013-03-19 01:14:00,34.3,31.5,30.08,SE,135,23.0,30.0,89,0.00,,,0.00,meteohub,2013-03-19 05:14:00,
2013-03-19 01:19:00,34.2,31.3,30.06,SE,135,36.0,44.0,89,0.00,,,0.00,meteohub,2013-03-19 05:19:00,
2013-03-19 01:25:00,34.2,31.3,30.06,SE,135,27.0,44.0,89,0.00,,,0.00,meteohub,2013-03-19 05:25:00,
2013-03-19 01:30:00,34.2,31.3,30.06,SE,135,37.0,37.0,89,0.00,,,0.00,meteohub,2013-03-19 05:30:00,
2013-03-19 01:35:00,34.2,31.3,30.06,SE,135,28.0,37.0,89,0.00,,,0.00,meteohub,2013-03-19 05:35:00,
2013-03-19 01:41:00,34.2,31.3,30.05,ESE,113,26.0,37.0,89,0.00,,,0.00,meteohub,2013-03-19 05:41:00,
2013-03-19 01:46:00,34.2,31.3,30.05,WSW,248,43.0,43.0,89,0.00,,,0.00,meteohub,2013-03-19 05:46:00,
2013-03-19 01:51:00,34.2,31.3,30.05,ESE,113,31.0,43.0,89,0.00,,,0.00,meteohub,2013-03-19 05:51:00,
2013-03-19 01:56:00,34.2,31.5,30.05,ESE,113,35.0,43.0,90,0.03,,,0.03,meteohub,2013-03-19 05:56:00,
2013-03-19 02:01:00,34.3,31.6,30.03,SE,135,34.0,43.0,90,0.03,,,0.03,meteohub,2013-03-19 06:01:00,
2013-03-19 02:06:00,34.3,31.6,30.03,SE,135,26.0,39.0,90,0.03,,,0.03,meteohub,2013-03-19 06:06:00,
2013-03-19 02:12:00,34.2,31.5,30.03,SE,135,40.0,40.0,90,0.03,,,0.03,meteohub,2013-03-19 06:12:00,
2013-03-19 02:17:00,34.2,31.5,30.03,SE,135,45.0,45.0,90,0.06,,,0.06,meteohub,2013-03-19 06:17:00,
2013-03-19 02:22:00,34.3,31.6,30.03,South,180,38.0,45.0,90,0.06,,,0.06,meteohub,2013-03-19 06:22:00,
2013-03-19 02:27:00,34.3,31.6,30.03,SSE,158,27.0,45.0,90,0.06,,,0.06,meteohub,2013-03-19 06:27:00,
2013-03-19 02:32:00,34.3,31.6,30.03,SSE,158,26.0,45.0,90,0.06,,,0.06,meteohub,2013-03-19 06:32:00,
2013-03-19 02:37:00,34.3,31.6,30.03,SE,135,32.0,39.0,90,0.08,,,0.08,meteohub,2013-03-19 06:37:00,
2013-03-19 02:42:00,34.3,31.6,30.01,SE,135,35.0,36.0,90,0.08,,,0.08,meteohub,2013-03-19 06:42:00,
2013-03-19 02:48:00,34.5,31.8,30.01,SSE,158,34.0,36.0,90,0.08,,,0.08,meteohub,2013-03-19 06:48:00,
2013-03-19 02:53:00,34.7,32.0,30.01,SSE,158,36.0,36.0,90,0.06,,,0.08,meteohub,2013-03-19 06:53:00,
2013-03-19 02:58:00,34.7,32.0,30.01,SSE,158,45.0,45.0,90,0.08,,,0.11,meteohub,2013-03-19 06:58:00,
2013-03-19 03:03:00,34.7,32.0,29.99,SSE,158,35.0,37.0,90,0.08,,,0.11,meteohub,2013-03-19 07:03:00,
2013-03-19 03:08:00,34.5,31.8,29.99,SE,135,38.0,45.0,90,0.08,,,0.11,meteohub,2013-03-19 07:08:00,
2013-03-19 03:13:00,34.7,32.0,29.99,SE,135,38.0,45.0,90,0.08,,,0.11,meteohub,2013-03-19 07:13:00,
2013-03-19 03:18:00,34.5,31.8,29.99,SE,135,30.0,45.0,90,0.06,,,0.11,meteohub,2013-03-19 07:18:00,
2013-03-19 03:24:00,34.7,32.0,29.96,SE,135,35.0,38.0,90,0.06,,,0.11,meteohub,2013-03-19 07:24:00,
2013-03-19 03:29:00,34.7,32.0,29.96,South,180,42.0,42.0,90,0.06,,,0.11,meteohub,2013-03-19 07:29:00,
2013-03-19 03:34:00,34.7,32.0,29.96,SE,135,38.0,47.0,90,0.06,,,0.14,meteohub,2013-03-19 07:34:00,
2013-03-19 03:39:00,34.9,32.2,29.96,SE,135,20.0,47.0,90,0.06,,,0.14,meteohub,2013-03-19 07:39:00,
2013-03-19 03:44:00,35.1,32.4,29.96,SSE,158,29.0,47.0,90,0.06,,,0.14,meteohub,2013-03-19 07:44:00,
2013-03-19 03:49:00,34.9,32.2,29.96,SSE,158,34.0,38.0,90,0.06,,,0.14,meteohub,2013-03-19 07:49:00,
2013-03-19 03:54:00,34.9,32.2,29.96,SE,135,28.0,38.0,90,0.06,,,0.14,meteohub,2013-03-19 07:54:00,
2013-03-19 04:00:00,35.1,32.4,29.96,SE,135,33.0,39.0,90,0.05,,,0.16,meteohub,2013-03-19 08:00:00,
2013-03-19 04:05:00,34.9,32.5,29.96,SSE,158,27.0,39.0,91,0.05,,,0.16,meteohub,2013-03-19 08:05:00,
2013-03-19 04:10:00,35.1,32.7,29.96,SSE,158,27.0,33.0,91,0.05,,,0.16,meteohub,2013-03-19 08:10:00,
2013-03-19 04:15:00,35.1,32.7,29.96,SSE,158,25.0,38.0,91,0.08,,,0.19,meteohub,2013-03-19 08:15:00,
2013-03-19 04:21:00,35.1,32.7,29.95,SE,135,28.0,38.0,91,0.08,,,0.19,meteohub,2013-03-19 08:21:00,
2013-03-19 04:26:00,35.1,32.7,29.95,SE,135,28.0,38.0,91,0.08,,,0.19,meteohub,2013-03-19 08:26:00,
2013-03-19 04:31:00,35.4,33.1,29.95,SE,135,30.0,36.0,91,0.05,,,0.19,meteohub,2013-03-19 08:31:00,
2013-03-19 04:37:00,35.4,33.1,29.95,SE,135,29.0,30.0,91,0.08,,,0.22,meteohub,2013-03-19 08:37:00,
2013-03-19 04:42:00,35.2,32.9,29.95,SE,135,33.0,33.0,91,0.08,,,0.22,meteohub,2013-03-19 08:42:00,
2013-03-19 04:47:00,35.2,32.9,29.95,SE,135,27.0,33.0,91,0.08,,,0.22,meteohub,2013-03-19 08:47:00,
2013-03-19 04:52:00,35.4,33.1,29.95,SE,135,23.0,33.0,91,0.06,,,0.22,meteohub,2013-03-19 08:52:00,
2013-03-19 04:57:00,35.4,33.1,29.95,SE,135,23.0,33.0,91,0.06,,,0.22,meteohub,2013-03-19 08:57:00,
2013-03-19 05:02:00,35.2,32.9,29.94,SE,135,26.0,32.0,91,0.06,,,0.22,meteohub,2013-03-19 09:02:00,
2013-03-19 05:07:00,35.4,33.1,29.94,SE,135,32.0,32.0,91,0.06,,,0.22,meteohub,2013-03-19 09:07:00,
2013-03-19 05:12:00,35.4,33.1,29.94,SE,135,31.0,32.0,91,0.08,,,0.24,meteohub,2013-03-19 09:12:00,
2013-03-19 05:17:00,35.2,32.9,29.94,SE,135,31.0,32.0,91,0.06,,,0.24,meteohub,2013-03-19 09:17:00,
2013-03-19 05:22:00,35.4,33.1,29.93,SE,135,30.0,32.0,91,0.06,,,0.24,meteohub,2013-03-19 09:22:00,
2013-03-19 05:27:00,35.2,32.9,29.93,SE,135,34.0,34.0,91,0.03,,,0.24,meteohub,2013-03-19 09:27:00,
2013-03-19 05:32:00,35.2,32.9,29.93,ESE,113,21.0,31.0,91,0.03,,,0.24,meteohub,2013-03-19 09:32:00,
2013-03-19 05:37:00,35.2,32.9,29.93,SE,135,28.0,38.0,91,0.03,,,0.24,meteohub,2013-03-19 09:37:00,
2013-03-19 05:43:00,35.2,32.9,29.92,WSW,248,25.0,38.0,91,0.03,,,0.24,meteohub,2013-03-19 09:43:00,
2013-03-19 05:48:00,35.2,32.9,29.92,SE,135,35.0,38.0,91,0.03,,,0.24,meteohub,2013-03-19 09:48:00,
2013-03-19 05:53:00,35.2,32.9,29.92,ESE,113,33.0,38.0,91,0.03,,,0.24,meteohub,2013-03-19 09:53:00,
2013-03-19 05:58:00,35.4,33.1,29.92,SE,135,17.0,36.0,91,0.06,,,0.27,meteohub,2013-03-19 09:58:00,
2013-03-19 06:03:00,35.4,33.1,29.90,ESE,113,26.0,36.0,91,0.06,,,0.27,meteohub,2013-03-19 10:03:00,
2013-03-19 06:08:00,35.4,33.1,29.90,ESE,113,26.0,36.0,91,0.03,,,0.27,meteohub,2013-03-19 10:08:00,
2013-03-19 06:13:00,35.4,33.1,29.90,ESE,113,26.0,27.0,91,0.03,,,0.27,meteohub,2013-03-19 10:13:00,
2013-03-19 06:19:00,35.4,33.1,29.90,ESE,113,30.0,30.0,91,0.03,,,0.27,meteohub,2013-03-19 10:19:00,
2013-03-19 06:24:00,35.6,33.3,29.89,East,90,31.0,36.0,91,0.03,,,0.27,meteohub,2013-03-19 10:24:00,
2013-03-19 06:29:00,35.4,33.1,29.89,SSE,158,19.0,36.0,91,0.03,,,0.27,meteohub,2013-03-19 10:29:00,
2013-03-19 06:34:00,35.6,33.3,29.89,SE,135,24.0,33.0,91,0.06,,,0.30,meteohub,2013-03-19 10:34:00,
2013-03-19 06:39:00,35.6,33.3,29.87,SE,135,31.0,34.0,91,0.06,,,0.30,meteohub,2013-03-19 10:39:00,
2013-03-19 06:44:00,35.6,33.3,29.87,SE,135,32.0,34.0,91,0.06,,,0.30,meteohub,2013-03-19 10:44:00,
2013-03-19 06:49:00,35.8,33.4,29.87,ESE,113,14.0,38.0,91,0.06,,,0.30,meteohub,2013-03-19 10:49:00,
2013-03-19 06:54:00,35.6,33.3,29.87,SE,135,28.0,38.0,91,0.03,,,0.30,meteohub,2013-03-19 10:54:00,
2013-03-19 06:59:00,35.6,33.3,29.87,SE,135,32.0,38.0,91,0.03,,,0.30,meteohub,2013-03-19 10:59:00,
2013-03-19 07:04:00,35.8,33.4,29.87,SE,135,31.0,34.0,91,0.03,,,0.30,meteohub,2013-03-19 11:04:00,
2013-03-19 07:10:00,35.8,33.4,29.87,SSE,158,22.0,35.0,91,0.03,,,0.30,meteohub,2013-03-19 11:10:00,
2013-03-19 07:15:00,36.0,33.6,29.87,SE,135,31.0,35.0,91,0.03,,,0.30,meteohub,2013-03-19 11:15:00,
2013-03-19 07:20:00,36.1,33.8,29.86,SE,135,31.0,31.0,91,0.06,,,0.33,meteohub,2013-03-19 11:20:00,
2013-03-19 07:26:00,36.1,33.8,29.86,SE,135,36.0,36.0,91,0.06,,,0.33,meteohub,2013-03-19 11:26:00,
2013-03-19 07:31:00,36.1,33.8,29.86,SE,135,38.0,38.0,91,0.03,,,0.33,meteohub,2013-03-19 11:31:00,
2013-03-19 07:37:00,36.1,33.8,29.86,SE,135,34.0,44.0,91,0.03,,,0.33,meteohub,2013-03-19 11:37:00,
2013-03-19 07:42:00,36.1,33.8,29.84,SSE,158,31.0,44.0,91,0.03,,,0.33,meteohub,2013-03-19 11:42:00,
2013-03-19 07:47:00,36.1,33.8,29.84,SE,135,31.0,44.0,91,0.03,,,0.33,meteohub,2013-03-19 11:47:00,
2013-03-19 07:53:00,36.1,33.8,29.84,SE,135,40.0,40.0,91,0.03,,,0.33,meteohub,2013-03-19 11:53:00,
2013-03-19 07:58:00,36.3,34.0,29.84,SE,135,42.0,42.0,91,0.06,,,0.35,meteohub,2013-03-19 11:58:00,
2013-03-19 08:03:00,36.1,33.8,29.82,SE,135,41.0,47.0,91,0.06,,,0.35,meteohub,2013-03-19 12:03:00,
2013-03-19 08:08:00,36.3,34.0,29.82,SSE,158,40.0,47.0,91,0.06,,,0.35,meteohub,2013-03-19 12:08:00,
2013-03-19 08:13:00,36.3,34.0,29.82,SE,135,29.0,47.0,91,0.06,,,0.35,meteohub,2013-03-19 12:13:00,
2013-03-19 08:18:00,36.5,34.2,29.82,SE,135,31.0,42.0,91,0.03,,,0.35,meteohub,2013-03-19 12:18:00,
2013-03-19 08:23:00,36.9,34.5,29.81,SE,135,40.0,40.0,91,0.03,,,0.35,meteohub,2013-03-19 12:23:00,
2013-03-19 08:28:00,36.5,34.2,29.81,SE,135,30.0,40.0,91,0.06,,,0.38,meteohub,2013-03-19 12:28:00,
2013-03-19 08:33:00,36.5,34.2,29.81,SE,135,40.0,40.0,91,0.06,,,0.38,meteohub,2013-03-19 12:33:00,
2013-03-19 08:39:00,36.9,34.5,29.81,SE,135,46.0,46.0,91,0.06,,,0.38,meteohub,2013-03-19 12:39:00,
2013-03-19 08:44:00,36.9,34.5,29.80,NNE,23,34.0,46.0,91,0.06,,,0.38,meteohub,2013-03-19 12:44:00,
2013-03-19 08:49:00,36.7,34.3,29.80,SE,135,40.0,46.0,91,0.06,,,0.38,meteohub,2013-03-19 12:49:00,
2013-03-19 08:54:00,36.9,34.5,29.80,SE,135,40.0,46.0,91,0.03,,,0.38,meteohub,2013-03-19 12:54:00,
2013-03-19 08:59:00,36.9,34.5,29.79,ESE,113,31.0,42.0,91,0.06,,,0.41,meteohub,2013-03-19 12:59:00,
2013-03-19 09:05:00,37.0,34.7,29.79,ESE,113,38.0,42.0,91,0.06,,,0.41,meteohub,2013-03-19 13:05:00,
2013-03-19 09:10:00,37.2,34.9,29.79,SE,135,36.0,48.0,91,0.06,,,0.41,meteohub,2013-03-19 13:10:00,
2013-03-19 09:15:00,37.0,34.7,29.79,SE,135,31.0,48.0,91,0.06,,,0.41,meteohub,2013-03-19 13:15:00,
2013-03-19 09:20:00,37.2,34.9,29.78,SE,135,36.0,36.0,91,0.06,,,0.41,meteohub,2013-03-19 13:20:00,
2013-03-19 09:26:00,37.6,35.2,29.78,SE,135,33.0,36.0,91,0.05,,,0.43,meteohub,2013-03-19 13:26:00,
2013-03-19 09:31:00,37.6,35.2,29.78,ESE,113,40.0,40.0,91,0.05,,,0.43,meteohub,2013-03-19 13:31:00,
2013-03-19 09:36:00,37.4,35.1,29.78,SE,135,38.0,40.0,91,0.05,,,0.43,meteohub,2013-03-19 13:36:00,
2013-03-19 09:41:00,37.6,35.2,29.75,SE,135,38.0,40.0,91,0.05,,,0.43,meteohub,2013-03-19 13:41:00,
2013-03-19 09:46:00,37.8,35.4,29.75,SE,135,31.0,40.0,91,0.05,,,0.43,meteohub,2013-03-19 13:46:00,
2013-03-19 09:52:00,38.1,36.0,29.75,SSE,158,33.0,38.0,92,0.05,,,0.46,meteohub,2013-03-19 13:52:00,
2013-03-19 09:57:00,38.5,36.3,29.75,SE,135,32.0,38.0,92,0.05,,,0.46,meteohub,2013-03-19 13:57:00,
2013-03-19 10:02:00,38.7,36.5,29.73,SE,135,34.0,40.0,92,0.05,,,0.46,meteohub,2013-03-19 14:02:00,
2013-03-19 10:07:00,39.0,36.9,29.73,East,90,33.0,40.0,92,0.05,,,0.46,meteohub,2013-03-19 14:07:00,
2013-03-19 10:13:00,39.2,37.0,29.73,SE,135,36.0,43.0,92,0.05,,,0.46,meteohub,2013-03-19 14:13:00,
2013-03-19 10:18:00,39.2,37.0,29.73,ESE,113,29.0,43.0,92,0.05,,,0.46,meteohub,2013-03-19 14:18:00,
2013-03-19 10:23:00,39.2,37.0,29.74,ENE,68,20.0,43.0,92,0.05,,,0.46,meteohub,2013-03-19 14:23:00,
2013-03-19 10:28:00,39.2,37.0,29.74,SE,135,15.0,39.0,92,0.03,,,0.46,meteohub,2013-03-19 14:28:00,
2013-03-19 10:33:00,39.2,37.0,29.74,NNW,338,9.0,39.0,92,0.03,,,0.46,meteohub,2013-03-19 14:33:00,
2013-03-19 10:39:00,39.2,37.0,29.74,ESE,113,16.0,26.0,92,0.03,,,0.46,meteohub,2013-03-19 14:39:00,
2013-03-19 10:44:00,39.4,37.2,29.74,SE,135,27.0,27.0,92,0.03,,,0.46,meteohub,2013-03-19 14:44:00,
2013-03-19 10:49:00,39.4,37.2,29.74,ESE,113,18.0,27.0,92,0.00,,,0.46,meteohub,2013-03-19 14:49:00,
2013-03-19 10:54:00,39.2,37.0,29.74,SE,135,15.0,27.0,92,0.00,,,0.46,meteohub,2013-03-19 14:54:00,
2013-03-19 10:59:00,39.4,37.2,29.73,SE,135,15.0,27.0,92,0.00,,,0.46,meteohub,2013-03-19 14:59:00,
2013-03-19 11:05:00,39.4,37.0,29.73,ESE,113,18.0,26.0,91,0.00,,,0.46,meteohub,2013-03-19 15:05:00,
2013-03-19 11:10:00,39.7,37.4,29.73,SE,135,26.0,26.0,91,0.00,,,0.46,meteohub,2013-03-19 15:10:00,
2013-03-19 11:15:00,39.9,37.8,29.73,SE,135,20.0,26.0,92,0.00,,,0.46,meteohub,2013-03-19 15:15:00,
2013-03-19 11:20:00,40.1,37.8,29.71,ENE,68,17.0,26.0,91,0.00,,,0.46,meteohub,2013-03-19 15:20:00,
2013-03-19 11:25:00,40.1,37.8,29.71,SE,135,13.0,20.0,91,0.00,,,0.46,meteohub,2013-03-19 15:25:00,
2013-03-19 11:31:00,40.5,38.3,29.71,SE,135,16.0,20.0,92,0.00,,,0.46,meteohub,2013-03-19 15:31:00,
2013-03-19 11:36:00,40.5,38.3,29.71,East,90,11.0,18.0,92,0.00,,,0.46,meteohub,2013-03-19 15:36:00,
2013-03-19 11:41:00,40.5,38.1,29.70,ESE,113,13.0,18.0,91,0.00,,,0.46,meteohub,2013-03-19 15:41:00,
2013-03-19 11:46:00,40.5,38.1,29.70,SE,135,12.0,18.0,91,0.00,,,0.46,meteohub,2013-03-19 15:46:00,
2013-03-19 11:51:00,40.5,38.1,29.70,East,90,13.0,17.0,91,0.00,,,0.46,meteohub,2013-03-19 15:51:00,
2013-03-19 11:56:00,40.5,38.1,29.70,ESE,113,7.0,17.0,91,0.00,,,0.46,meteohub,2013-03-19 15:56:00,
2013-03-19 12:01:00,40.6,38.3,29.70,ENE,68,8.0,15.0,91,0.00,,,0.46,meteohub,2013-03-19 16:01:00,
2013-03-19 12:06:00,40.6,38.3,29.70,SE,135,8.0,15.0,91,0.00,,,0.46,meteohub,2013-03-19 16:06:00,
2013-03-19 12:12:00,40.6,38.3,29.70,SE,135,8.0,15.0,91,0.00,,,0.46,meteohub,2013-03-19 16:12:00,
2013-03-19 12:17:00,41.2,38.8,29.70,East,90,9.0,11.0,91,0.00,,,0.46,meteohub,2013-03-19 16:17:00,
2013-03-19 12:22:00,41.0,38.7,29.66,East,90,14.0,14.0,91,0.00,,,0.46,meteohub,2013-03-19 16:22:00,
2013-03-19 12:27:00,41.5,39.2,29.66,NE,45,8.0,14.0,91,0.03,,,0.49,meteohub,2013-03-19 16:27:00,
2013-03-19 12:33:00,41.5,39.2,29.66,East,90,11.0,17.0,91,0.03,,,0.49,meteohub,2013-03-19 16:33:00,
2013-03-19 12:38:00,41.4,39.0,29.66,SSE,158,17.0,17.0,91,0.03,,,0.49,meteohub,2013-03-19 16:38:00,
2013-03-19 12:43:00,41.4,39.0,29.66,ENE,68,14.0,17.0,91,0.03,,,0.49,meteohub,2013-03-19 16:43:00,
2013-03-19 12:48:00,41.5,39.2,29.66,East,90,11.0,17.0,91,0.03,,,0.49,meteohub,2013-03-19 16:48:00,
2013-03-19 12:54:00,41.4,39.0,29.66,East,90,12.0,17.0,91,0.03,,,0.49,meteohub,2013-03-19 16:54:00,
2013-03-19 12:59:00,41.5,39.2,29.66,ENE,68,9.0,17.0,91,0.03,,,0.49,meteohub,2013-03-19 16:59:00,
2013-03-19 13:04:00,41.9,39.4,29.64,ENE,68,13.0,16.0,91,0.03,,,0.49,meteohub,2013-03-19 17:04:00,
2013-03-19 13:09:00,41.7,39.2,29.64,SE,135,15.0,16.0,91,0.03,,,0.49,meteohub,2013-03-19 17:09:00,
2013-03-19 13:14:00,41.5,39.2,29.64,ENE,68,9.0,17.0,91,0.03,,,0.49,meteohub,2013-03-19 17:14:00,
2013-03-19 13:19:00,41.4,39.0,29.63,ESE,113,9.0,17.0,91,0.03,,,0.49,meteohub,2013-03-19 17:19:00,
2013-03-19 13:24:00,41.4,39.0,29.63,SE,135,8.0,16.0,91,0.03,,,0.49,meteohub,2013-03-19 17:24:00,
2013-03-19 13:29:00,41.4,39.0,29.63,NNW,338,7.0,16.0,91,0.00,,,0.49,meteohub,2013-03-19 17:29:00,
2013-03-19 13:34:00,41.2,38.8,29.63,ESE,113,6.0,16.0,91,0.00,,,0.49,meteohub,2013-03-19 17:34:00,
2013-03-19 13:39:00,40.6,38.3,29.65,ENE,68,9.0,10.0,91,0.00,,,0.49,meteohub,2013-03-19 17:39:00,
2013-03-19 13:45:00,40.5,38.1,29.65,NNE,23,7.0,12.0,91,0.00,,,0.49,meteohub,2013-03-19 17:45:00,
2013-03-19 13:50:00,40.5,38.1,29.65,NNE,23,14.0,14.0,91,0.00,,,0.49,meteohub,2013-03-19 17:50:00,
2013-03-19 13:55:00,40.6,38.3,29.65,ENE,68,8.0,14.0,91,0.03,,,0.52,meteohub,2013-03-19 17:55:00,
2013-03-19 14:01:00,40.8,38.5,29.68,NE,45,9.0,14.0,91,0.06,,,0.54,meteohub,2013-03-19 18:01:00,
2013-03-19 14:06:00,40.5,38.1,29.68,NNE,23,8.0,12.0,91,0.06,,,0.54,meteohub,2013-03-19 18:06:00,
2013-03-19 14:11:00,40.5,38.1,29.68,NNE,23,10.0,12.0,91,0.06,,,0.54,meteohub,2013-03-19 18:11:00,
2013-03-19 14:16:00,40.5,38.1,29.68,NE,45,8.0,12.0,91,0.06,,,0.54,meteohub,2013-03-19 18:16:00,
2013-03-19 14:22:00,40.5,38.1,29.66,NNE,23,6.0,11.0,91,0.06,,,0.54,meteohub,2013-03-19 18:22:00,
2013-03-19 14:27:00,40.5,38.1,29.66,NE,45,5.0,11.0,91,0.06,,,0.54,meteohub,2013-03-19 18:27:00,
2013-03-19 14:32:00,40.5,38.1,29.66,North,0,7.0,8.0,91,0.06,,,0.54,meteohub,2013-03-19 18:32:00,
2013-03-19 14:37:00,40.5,38.1,29.66,NE,45,8.0,8.0,91,0.06,,,0.54,meteohub,2013-03-19 18:37:00,
2013-03-19 14:42:00,39.9,37.6,29.65,NNE,23,6.0,12.0,91,0.06,,,0.54,meteohub,2013-03-19 18:42:00,
2013-03-19 14:47:00,39.9,37.6,29.65,NNE,23,8.0,12.0,91,0.06,,,0.54,meteohub,2013-03-19 18:47:00,
2013-03-19 14:52:00,39.9,37.6,29.65,East,90,13.0,13.0,91,0.03,,,0.54,meteohub,2013-03-19 18:52:00,
2013-03-19 14:58:00,40.1,37.8,29.65,NNE,23,10.0,13.0,91,0.00,,,0.54,meteohub,2013-03-19 18:58:00,
2013-03-19 15:03:00,40.5,38.1,29.60,NE,45,13.0,15.0,91,0.00,,,0.54,meteohub,2013-03-19 19:03:00,
2013-03-19 15:08:00,40.3,37.9,29.60,NE,45,19.0,19.0,91,0.00,,,0.54,meteohub,2013-03-19 19:08:00,
2013-03-19 15:13:00,40.1,37.8,29.60,ENE,68,19.0,19.0,91,0.00,,,0.54,meteohub,2013-03-19 19:13:00,
2013-03-19 15:18:00,40.1,37.8,29.60,East,90,13.0,19.0,91,0.00,,,0.54,meteohub,2013-03-19 19:18:00,
2013-03-19 15:23:00,40.5,38.1,29.59,East,90,17.0,19.0,91,0.00,,,0.54,meteohub,2013-03-19 19:23:00,
2013-03-19 15:29:00,40.3,37.9,29.59,ENE,68,20.0,20.0,91,0.00,,,0.54,meteohub,2013-03-19 19:29:00,
2013-03-19 15:34:00,40.8,38.5,29.59,ENE,68,14.0,20.0,91,0.00,,,0.54,meteohub,2013-03-19 19:34:00,
2013-03-19 15:39:00,41.4,39.0,29.59,ENE,68,13.0,20.0,91,0.00,,,0.54,meteohub,2013-03-19 19:39:00,
2013-03-19 15:44:00,41.0,38.7,29.59,ENE,68,15.0,20.0,91,0.00,,,0.54,meteohub,2013-03-19 19:44:00,
2013-03-19 15:49:00,41.4,39.0,29.59,ENE,68,11.0,17.0,91,0.00,,,0.54,meteohub,2013-03-19 19:49:00,
2013-03-19 15:54:00,42.6,40.5,29.59,NNE,23,13.0,17.0,92,0.00,,,0.54,meteohub,2013-03-19 19:54:00,
2013-03-19 15:59:00,43.3,40.8,29.60,NE,45,11.0,17.0,91,0.03,,,0.57,meteohub,2013-03-19 19:59:00,
2013-03-19 16:05:00,43.7,41.2,29.60,West,270,4.0,14.0,91,0.03,,,0.57,meteohub,2013-03-19 20:05:00,
2013-03-19 16:10:00,43.9,41.4,29.60,NE,45,5.0,11.0,91,0.03,,,0.57,meteohub,2013-03-19 20:10:00,
2013-03-19 16:15:00,44.4,41.9,29.60,ENE,68,6.0,11.0,91,0.03,,,0.57,meteohub,2013-03-19 20:15:00,
2013-03-19 16:20:00,44.4,41.9,29.59,NNE,23,5.0,9.0,91,0.03,,,0.57,meteohub,2013-03-19 20:20:00,
2013-03-19 16:26:00,44.1,41.4,29.59,ENE,68,5.0,9.0,90,0.03,,,0.57,meteohub,2013-03-19 20:26:00,
2013-03-19 16:31:00,43.7,41.0,29.59,ENE,68,5.0,10.0,90,0.03,,,0.57,meteohub,2013-03-19 20:31:00,
2013-03-19 16:36:00,43.3,40.6,29.59,NE,45,8.0,10.0,90,0.03,,,0.57,meteohub,2013-03-19 20:36:00,
2013-03-19 16:42:00,43.3,40.6,29.60,NNE,23,8.0,9.0,90,0.03,,,0.57,meteohub,2013-03-19 20:42:00,
2013-03-19 16:47:00,43.2,40.5,29.60,NE,45,11.0,11.0,90,0.03,,,0.57,meteohub,2013-03-19 20:47:00,
2013-03-19 16:52:00,42.8,40.1,29.60,NE,45,10.0,11.0,90,0.00,,,0.57,meteohub,2013-03-19 20:52:00,
2013-03-19 16:57:00,42.6,39.9,29.60,NNE,23,10.0,11.0,90,0.00,,,0.57,meteohub,2013-03-19 20:57:00,
2013-03-19 17:02:00,42.1,39.4,29.61,NNE,23,7.0,11.0,90,0.00,,,0.57,meteohub,2013-03-19 21:02:00,
2013-03-19 17:07:00,41.9,39.2,29.61,NE,45,6.0,10.0,90,0.00,,,0.57,meteohub,2013-03-19 21:07:00,
2013-03-19 17:12:00,41.7,39.0,29.61,East,90,5.0,11.0,90,0.00,,,0.57,meteohub,2013-03-19 21:12:00,
2013-03-19 17:17:00,41.9,39.2,29.61,ENE,68,9.0,11.0,90,0.00,,,0.57,meteohub,2013-03-19 21:17:00,
2013-03-19 17:22:00,41.9,39.2,29.62,ENE,68,10.0,12.0,90,0.00,,,0.57,meteohub,2013-03-19 21:22:00,
2013-03-19 17:27:00,41.7,39.0,29.62,ENE,68,7.0,12.0,90,0.00,,,0.57,meteohub,2013-03-19 21:27:00,
2013-03-19 17:33:00,41.9,39.2,29.62,WSW,248,9.0,10.0,90,0.00,,,0.57,meteohub,2013-03-19 21:33:00,
2013-03-19 17:38:00,41.5,38.8,29.62,NNE,23,6.0,10.0,90,0.00,,,0.57,meteohub,2013-03-19 21:38:00,
2013-03-19 17:43:00,41.2,38.5,29.63,North,0,13.0,13.0,90,0.00,,,0.57,meteohub,2013-03-19 21:43:00,
2013-03-19 17:48:00,41.2,38.5,29.63,NNE,23,14.0,14.0,90,0.00,,,0.57,meteohub,2013-03-19 21:48:00,
2013-03-19 17:53:00,40.5,37.8,29.63,North,0,15.0,15.0,90,0.00,,,0.57,meteohub,2013-03-19 21:53:00,
2013-03-19 17:58:00,40.5,37.8,29.63,North,0,16.0,16.0,90,0.00,,,0.57,meteohub,2013-03-19 21:58:00,
2013-03-19 18:04:00,40.1,37.4,29.65,North,0,19.0,19.0,90,0.00,,,0.57,meteohub,2013-03-19 22:04:00,
2013-03-19 18:09:00,39.9,37.2,29.65,NNW,338,9.0,19.0,90,0.00,,,0.57,meteohub,2013-03-19 22:09:00,
2013-03-19 18:14:00,39.9,37.2,29.65,North,0,17.0,19.0,90,0.00,,,0.57,meteohub,2013-03-19 22:14:00,
2013-03-19 18:19:00,39.7,37.0,29.65,North,0,11.0,19.0,90,0.00,,,0.57,meteohub,2013-03-19 22:19:00,
2013-03-19 18:24:00,39.9,37.2,29.65,NNE,23,14.0,17.0,90,0.00,,,0.57,meteohub,2013-03-19 22:24:00,
2013-03-19 18:29:00,39.7,37.0,29.65,NNE,23,10.0,17.0,90,0.00,,,0.57,meteohub,2013-03-19 22:29:00,
2013-03-19 18:35:00,39.7,37.0,29.65,NNE,23,11.0,14.0,90,0.00,,,0.57,meteohub,2013-03-19 22:35:00,
2013-03-19 18:40:00,39.7,37.0,29.67,NE,45,15.0,15.0,90,0.00,,,0.57,meteohub,2013-03-19 22:40:00,
2013-03-19 18:45:00,39.4,36.7,29.67,NNW,338,11.0,15.0,90,0.00,,,0.57,meteohub,2013-03-19 22:45:00,
2013-03-19 18:50:00,39.2,36.5,29.67,North,0,14.0,15.0,90,0.00,,,0.57,meteohub,2013-03-19 22:50:00,
2013-03-19 18:55:00,39.2,36.5,29.67,NNW,338,8.0,15.0,90,0.00,,,0.57,meteohub,2013-03-19 22:55:00,
2013-03-19 19:00:00,39.4,36.7,29.67,NNW,338,15.0,15.0,90,0.00,,,0.57,meteohub,2013-03-19 23:00:00,
2013-03-19 19:05:00,39.0,36.3,29.67,NNW,338,10.0,15.0,90,0.00,,,0.57,meteohub,2013-03-19 23:05:00,
2013-03-19 19:10:00,38.8,36.1,29.67,NNW,338,11.0,15.0,90,0.00,,,0.57,meteohub,2013-03-19 23:10:00,
2013-03-19 19:16:00,38.7,36.3,29.67,NNW,338,15.0,15.0,91,0.00,,,0.57,meteohub,2013-03-19 23:16:00,
2013-03-19 19:21:00,38.5,36.1,29.67,NW,315,10.0,15.0,91,0.00,,,0.57,meteohub,2013-03-19 23:21:00,
2013-03-19 19:26:00,38.1,35.8,29.67,NNE,23,13.0,15.0,91,0.00,,,0.57,meteohub,2013-03-19 23:26:00,
2013-03-19 19:32:00,37.9,35.6,29.67,NNW,338,13.0,16.0,91,0.00,,,0.57,meteohub,2013-03-19 23:32:00,
2013-03-19 19:37:00,37.8,35.4,29.67,NNW,338,12.0,16.0,91,0.00,,,0.57,meteohub,2013-03-19 23:37:00,
2013-03-19 19:42:00,37.9,35.6,29.68,NNW,338,15.0,17.0,91,0.00,,,0.57,meteohub,2013-03-19 23:42:00,
2013-03-19 19:47:00,37.9,35.6,29.68,North,0,15.0,17.0,91,0.00,,,0.57,meteohub,2013-03-19 23:47:00,
2013-03-19 19:52:00,37.8,35.4,29.68,NW,315,16.0,17.0,91,0.00,,,0.57,meteohub,2013-03-19 23:52:00,
2013-03-19 19:57:00,37.8,35.4,29.68,NW,315,19.0,19.0,91,0.00,,,0.57,meteohub,2013-03-19 23:57:00,
2013-03-19 20:02:00,37.8,35.4,29.70,North,0,16.0,19.0,91,0.00,,,0.57,meteohub,2013-03-20 00:02:00,
2013-03-19 20:07:00,37.6,35.2,29.70,NW,315,14.0,19.0,91,0.00,,,0.00,meteohub,2013-03-20 00:07:00,
2013-03-19 20:13:00,37.6,35.2,29.70,NNE,23,20.0,21.0,91,0.00,,,0.00,meteohub,2013-03-20 00:13:00,
2013-03-19 20:18:00,37.0,34.7,29.70,NW,315,18.0,21.0,91,0.00,,,0.00,meteohub,2013-03-20 00:18:00,
2013-03-19 20:23:00,36.9,34.5,29.72,NNW,338,15.0,21.0,91,0.00,,,0.00,meteohub,2013-03-20 00:23:00,
2013-03-19 20:28:00,36.7,34.3,29.72,North,0,14.0,20.0,91,0.00,,,0.00,meteohub,2013-03-20 00:28:00,
2013-03-19 20:34:00,36.5,34.2,29.72,NNW,338,17.0,19.0,91,0.00,,,0.00,meteohub,2013-03-20 00:34:00,
2013-03-19 20:39:00,36.7,34.3,29.72,NNE,23,16.0,19.0,91,0.00,,,0.00,meteohub,2013-03-20 00:39:00,
2013-03-19 20:44:00,36.5,34.2,29.72,NNW,338,17.0,17.0,91,0.00,,,0.00,meteohub,2013-03-20 00:44:00,
2013-03-19 20:49:00,36.7,34.3,29.72,NNW,338,14.0,17.0,91,0.00,,,0.00,meteohub,2013-03-20 00:49:00,
2013-03-19 20:54:00,36.9,34.5,29.72,NNE,23,19.0,19.0,91,0.00,,,0.00,meteohub,2013-03-20 00:54:00,
2013-03-19 21:00:00,36.9,34.5,29.71,North,0,18.0,22.0,91,0.00,,,0.00,meteohub,2013-03-20 01:00:00,
2013-03-19 21:05:00,36.5,34.2,29.71,NNE,23,16.0,22.0,91,0.00,,,0.00,meteohub,2013-03-20 01:05:00,
2013-03-19 21:10:00,36.3,34.0,29.71,NNE,23,11.0,21.0,91,0.00,,,0.00,meteohub,2013-03-20 01:10:00,
2013-03-19 21:15:00,36.1,33.8,29.71,NNE,23,16.0,21.0,91,0.00,,,0.00,meteohub,2013-03-20 01:15:00,
2013-03-19 21:20:00,36.1,33.8,29.71,NNW,338,11.0,17.0,91,0.00,,,0.00,meteohub,2013-03-20 01:20:00,
2013-03-19 21:26:00,35.8,33.4,29.71,North,0,16.0,16.0,91,0.00,,,0.00,meteohub,2013-03-20 01:26:00,
2013-03-19 21:31:00,35.6,33.3,29.71,NNW,338,13.0,16.0,91,0.00,,,0.00,meteohub,2013-03-20 01:31:00,
2013-03-19 21:36:00,35.6,33.3,29.71,North,0,15.0,16.0,91,0.00,,,0.00,meteohub,2013-03-20 01:36:00,
2013-03-19 21:41:00,35.6,33.3,29.71,NNW,338,13.0,16.0,91,0.00,,,0.00,meteohub,2013-03-20 01:41:00,
2013-03-19 21:46:00,35.4,33.1,29.71,NNW,338,13.0,15.0,91,0.00,,,0.00,meteohub,2013-03-20 01:46:00,
2013-03-19 21:52:00,35.4,32.7,29.71,North,0,18.0,18.0,90,0.00,,,0.00,meteohub,2013-03-20 01:52:00,
2013-03-19 21:57:00,35.2,32.5,29.71,NNE,23,14.0,18.0,90,0.00,,,0.00,meteohub,2013-03-20 01:57:00,
2013-03-19 22:02:00,35.4,32.7,29.71,NE,45,13.0,18.0,90,0.00,,,0.00,meteohub,2013-03-20 02:02:00,
2013-03-19 22:07:00,35.2,32.5,29.71,North,0,12.0,18.0,90,0.00,,,0.00,meteohub,2013-03-20 02:07:00,
2013-03-19 22:12:00,34.9,32.5,29.71,NNE,23,13.0,15.0,91,0.00,,,0.00,meteohub,2013-03-20 02:12:00,
2013-03-19 22:17:00,34.9,32.5,29.71,North,0,19.0,19.0,91,0.00,,,0.00,meteohub,2013-03-20 02:17:00,
2013-03-19 22:22:00,34.9,32.2,29.72,North,0,21.0,21.0,90,0.00,,,0.00,meteohub,2013-03-20 02:22:00,
2013-03-19 22:27:00,35.1,32.4,29.72,NNW,338,16.0,21.0,90,0.00,,,0.00,meteohub,2013-03-20 02:27:00,
2013-03-19 22:33:00,34.7,32.0,29.72,NNE,23,13.0,21.0,90,0.00,,,0.00,meteohub,2013-03-20 02:33:00,
2013-03-19 22:38:00,34.7,32.0,29.72,NW,315,14.0,21.0,90,0.00,,,0.00,meteohub,2013-03-20 02:38:00,
2013-03-19 22:43:00,34.7,32.0,29.71,NNW,338,11.0,16.0,90,0.00,,,0.00,meteohub,2013-03-20 02:43:00,
2013-03-19 22:48:00,34.7,32.0,29.71,NNW,338,9.0,16.0,90,0.00,,,0.00,meteohub,2013-03-20 02:48:00,
2013-03-19 22:53:00,34.5,31.8,29.71,North,0,14.0,14.0,90,0.00,,,0.00,meteohub,2013-03-20 02:53:00,
2013-03-19 22:59:00,34.5,31.8,29.71,North,0,12.0,14.0,90,0.00,,,0.00,meteohub,2013-03-20 02:59:00,
2013-03-19 23:04:00,34.3,31.6,29.72,NW,315,12.0,14.0,90,0.00,,,0.00,meteohub,2013-03-20 03:04:00,
2013-03-19 23:09:00,34.3,31.6,29.72,North,0,14.0,17.0,90,0.00,,,0.00,meteohub,2013-03-20 03:09:00,
2013-03-19 23:14:00,34.3,31.6,29.72,NNW,338,9.0,17.0,90,0.00,,,0.00,meteohub,2013-03-20 03:14:00,
2013-03-19 23:20:00,34.3,31.6,29.73,WNW,293,13.0,17.0,90,0.00,,,0.00,meteohub,2013-03-20 03:20:00,
2013-03-19 23:25:00,34.2,31.5,29.73,North,0,9.0,13.0,90,0.00,,,0.00,meteohub,2013-03-20 03:25:00,
2013-03-19 23:30:00,34.2,31.5,29.73,NNW,338,10.0,13.0,90,0.00,,,0.00,meteohub,2013-03-20 03:30:00,
2013-03-19 23:35:00,34.3,31.6,29.73,NNW,338,20.0,20.0,90,0.00,,,0.00,meteohub,2013-03-20 03:35:00,
2013-03-19 23:40:00,34.2,31.5,29.72,NNW,338,13.0,20.0,90,0.00,,,0.00,meteohub,2013-03-20 03:40:00,
2013-03-19 23:45:00,34.2,31.5,29.72,ENE,68,7.0,20.0,90,0.00,,,0.00,meteohub,2013-03-20 03:45:00,
2013-03-19 23:50:00,34.2,31.5,29.72,NNE,23,9.0,20.0,90,0.00,,,0.00,meteohub,2013-03-20 03:50:00,
2013-03-19 23:55:00,34.2,31.5,29.72,NNE,23,12.0,13.0,90,0.00,,,0.00,meteohub,2013-03-20 03:55:00,